createdAt,value
2023-01-13T00:00:05.555Z,66.85
2023-01-13T00:01:05.405Z,66.85
2023-01-13T00:02:05.486Z,66.35
2023-01-13T00:03:05.396Z,66.35
2023-01-13T00:04:05.377Z,65.94
2023-01-13T00:05:05.454Z,66.35
2023-01-13T00:06:05.359Z,66.44
2023-01-13T00:07:05.354Z,66.55
2023-01-13T00:08:06.338Z,66.14
2023-01-13T00:09:05.335Z,66.55
2023-01-13T00:10:06.293Z,66.24
2023-01-13T00:11:05.292Z,65.94
2023-01-13T00:12:05.302Z,66.24
2023-01-13T00:13:05.255Z,66.14
2023-01-13T00:14:05.256Z,66.85
2023-01-13T00:15:05.254Z,66.58
2023-01-13T00:16:05.319Z,66.58
2023-01-13T00:17:05.271Z,66.75
2023-01-13T00:18:06.210Z,66.78
2023-01-13T00:19:06.179Z,67.08
2023-01-13T00:20:05.193Z,66.65
2023-01-13T00:21:05.199Z,66.68
2023-01-13T00:22:05.150Z,66.88
2023-01-13T00:23:06.207Z,67.60
2023-01-13T00:24:05.144Z,67.39
2023-01-13T00:25:05.136Z,67.60
2023-01-13T00:26:06.138Z,67.69
2023-01-13T00:27:05.107Z,67.39
2023-01-13T00:28:06.110Z,66.88
2023-01-13T00:29:05.467Z,67.29
2023-01-13T00:30:05.065Z,66.58
2023-01-13T00:31:05.162Z,66.55
2023-01-13T00:32:05.094Z,66.78
2023-01-13T00:33:05.043Z,66.78
2023-01-13T00:34:05.037Z,66.75
2023-01-13T00:35:05.035Z,66.65
2023-01-13T00:36:04.999Z,67.57
2023-01-13T00:37:05.011Z,66.88
2023-01-13T00:38:05.024Z,67.08
2023-01-13T00:39:04.971Z,66.47
2023-01-13T00:40:05.980Z,67.05
2023-01-13T00:41:05.961Z,66.65
2023-01-13T00:42:04.942Z,66.55
2023-01-13T00:43:04.942Z,66.85
2023-01-13T00:44:04.976Z,66.44
2023-01-13T00:45:04.901Z,66.65
2023-01-13T00:46:05.004Z,66.44
2023-01-13T00:47:04.892Z,66.85
2023-01-13T00:48:05.909Z,66.75
2023-01-13T00:49:04.880Z,66.85
2023-01-13T00:50:05.897Z,66.75
2023-01-13T00:51:05.903Z,66.65
2023-01-13T00:52:04.829Z,66.88
2023-01-13T00:53:04.811Z,66.75
2023-01-13T00:54:05.820Z,67.05
2023-01-13T00:55:04.813Z,66.55
2023-01-13T00:56:04.821Z,66.65
2023-01-13T00:57:04.791Z,66.65
2023-01-13T00:58:04.757Z,66.44
2023-01-13T00:59:05.797Z,66.35
2023-01-13T01:00:04.770Z,66.04
2023-01-13T01:01:04.921Z,66.04
2023-01-13T01:02:04.891Z,66.24
2023-01-13T01:03:05.740Z,66.75
2023-01-13T01:04:05.698Z,66.04
2023-01-13T01:05:04.683Z,65.94
2023-01-13T01:06:04.712Z,66.14
2023-01-13T01:07:04.680Z,66.24
2023-01-13T01:08:04.702Z,66.24
2023-01-13T01:09:04.641Z,66.14
2023-01-13T01:10:04.642Z,66.14
2023-01-13T01:11:04.660Z,66.04
2023-01-13T01:12:04.638Z,65.94
2023-01-13T01:13:04.592Z,66.96
2023-01-13T01:14:04.628Z,66.65
2023-01-13T01:15:04.595Z,66.55
2023-01-13T01:16:04.682Z,65.94
2023-01-13T01:17:04.559Z,66.85
2023-01-13T01:18:04.541Z,67.08
2023-01-13T01:19:04.558Z,66.75
2023-01-13T01:20:04.527Z,66.17
2023-01-13T01:21:05.509Z,66.58
2023-01-13T01:22:05.507Z,66.75
2023-01-13T01:23:04.500Z,67.26
2023-01-13T01:24:04.496Z,66.04
2023-01-13T01:25:04.504Z,66.44
2023-01-13T01:26:05.472Z,66.35
2023-01-13T01:27:04.435Z,66.55
2023-01-13T01:28:04.475Z,66.14
2023-01-13T01:29:04.442Z,66.04
2023-01-13T01:30:04.424Z,66.24
2023-01-13T01:31:04.419Z,66.04
2023-01-13T01:32:04.397Z,66.44
2023-01-13T01:33:04.388Z,66.04
2023-01-13T01:34:04.419Z,66.35
2023-01-13T01:35:04.361Z,66.72
2023-01-13T01:36:04.368Z,66.24
2023-01-13T01:37:04.330Z,66.21
2023-01-13T01:38:04.333Z,65.91
2023-01-13T01:39:04.326Z,66.24
2023-01-13T01:40:04.324Z,66.88
2023-01-13T01:41:04.297Z,66.14
2023-01-13T01:42:04.303Z,66.04
2023-01-13T01:43:04.324Z,66.24
2023-01-13T01:44:04.306Z,66.35
2023-01-13T01:45:05.260Z,66.35
2023-01-13T01:46:04.231Z,66.47
2023-01-13T01:47:04.309Z,66.65
2023-01-13T01:48:04.219Z,66.44
2023-01-13T01:49:04.199Z,66.14
2023-01-13T01:50:04.213Z,66.44
2023-01-13T01:51:04.202Z,66.35
2023-01-13T01:52:04.214Z,65.91
2023-01-13T01:53:04.185Z,66.11
2023-01-13T01:54:04.141Z,65.83
2023-01-13T01:55:04.132Z,66.00
2023-01-13T01:56:04.133Z,65.39
2023-01-13T01:57:05.150Z,65.83
2023-01-13T01:58:05.098Z,65.91
2023-01-13T01:59:04.080Z,66.35
2023-01-13T02:00:04.081Z,66.35
2023-01-13T02:01:04.293Z,66.35
2023-01-13T02:02:04.151Z,66.44
2023-01-13T02:03:04.074Z,65.94
2023-01-13T02:04:04.056Z,65.94
2023-01-13T02:05:04.019Z,66.35
2023-01-13T02:06:04.026Z,66.00
2023-01-13T02:07:03.996Z,65.94
2023-01-13T02:08:04.033Z,66.35
2023-01-13T02:09:03.975Z,66.85
2023-01-13T02:10:04.964Z,66.14
2023-01-13T02:11:03.952Z,66.96
2023-01-13T02:12:03.948Z,66.44
2023-01-13T02:13:03.928Z,66.04
2023-01-13T02:14:03.934Z,66.14
2023-01-13T02:15:03.908Z,65.83
2023-01-13T02:16:03.951Z,66.24
2023-01-13T02:17:03.884Z,66.00
2023-01-13T02:18:03.878Z,65.83
2023-01-13T02:19:03.901Z,65.94
2023-01-13T02:20:03.878Z,66.85
2023-01-13T02:21:03.847Z,66.55
2023-01-13T02:22:03.843Z,66.65
2023-01-13T02:23:04.849Z,66.35
2023-01-13T02:24:03.832Z,66.65
2023-01-13T02:25:03.806Z,66.11
2023-01-13T02:26:03.802Z,66.21
2023-01-13T02:27:04.767Z,66.14
2023-01-13T02:28:04.806Z,65.94
2023-01-13T02:29:03.787Z,66.65
2023-01-13T02:30:03.766Z,66.75
2023-01-13T02:31:03.729Z,66.68
2023-01-13T02:32:03.724Z,66.65
2023-01-13T02:33:03.717Z,66.78
2023-01-13T02:34:03.700Z,66.65
2023-01-13T02:35:03.745Z,66.55
2023-01-13T02:36:03.684Z,66.75
2023-01-13T02:37:03.669Z,66.75
2023-01-13T02:38:03.655Z,67.05
2023-01-13T02:39:03.659Z,66.65
2023-01-13T02:40:03.631Z,66.55
2023-01-13T02:41:03.636Z,67.26
2023-01-13T02:42:04.606Z,66.75
2023-01-13T02:43:03.599Z,67.05
2023-01-13T02:44:03.591Z,66.55
2023-01-13T02:45:03.615Z,66.55
2023-01-13T02:46:03.644Z,66.68
2023-01-13T02:47:03.568Z,66.85
2023-01-13T02:48:03.555Z,66.55
2023-01-13T02:49:03.518Z,66.44
2023-01-13T02:50:03.534Z,66.55
2023-01-13T02:51:04.514Z,67.26
2023-01-13T02:52:03.524Z,66.55
2023-01-13T02:53:03.490Z,66.55
2023-01-13T02:54:03.492Z,65.94
2023-01-13T02:55:03.494Z,66.24
2023-01-13T02:56:03.486Z,65.91
2023-01-13T02:57:03.458Z,66.52
2023-01-13T02:58:03.447Z,65.50
2023-01-13T02:59:03.438Z,65.80
2023-01-13T03:00:03.412Z,66.21
2023-01-13T03:01:03.574Z,66.31
2023-01-13T03:02:04.620Z,66.41
2023-01-13T03:03:04.371Z,66.41
2023-01-13T03:04:03.371Z,66.21
2023-01-13T03:05:03.377Z,66.21
2023-01-13T03:06:03.362Z,66.24
2023-01-13T03:07:03.332Z,66.65
2023-01-13T03:08:03.354Z,66.31
2023-01-13T03:09:03.343Z,66.72
2023-01-13T03:10:03.296Z,66.14
2023-01-13T03:11:03.320Z,66.35
2023-01-13T03:12:03.280Z,66.31
2023-01-13T03:13:03.272Z,66.04
2023-01-13T03:14:04.294Z,66.65
2023-01-13T03:15:03.294Z,66.85
2023-01-13T03:16:03.260Z,66.92
2023-01-13T03:17:03.229Z,66.14
2023-01-13T03:18:04.238Z,66.96
2023-01-13T03:19:03.216Z,66.88
2023-01-13T03:20:03.205Z,67.36
2023-01-13T03:21:03.227Z,66.55
2023-01-13T03:22:03.169Z,66.75
2023-01-13T03:23:03.185Z,67.26
2023-01-13T03:24:03.164Z,67.26
2023-01-13T03:25:03.141Z,67.80
2023-01-13T03:26:03.149Z,67.69
2023-01-13T03:27:03.111Z,67.26
2023-01-13T03:28:03.134Z,67.26
2023-01-13T03:29:04.094Z,66.75
2023-01-13T03:30:03.092Z,67.26
2023-01-13T03:31:03.160Z,67.26
2023-01-13T03:32:03.080Z,67.26
2023-01-13T03:33:03.045Z,67.26
2023-01-13T03:34:04.077Z,67.26
2023-01-13T03:35:03.024Z,67.26
2023-01-13T03:36:03.031Z,67.05
2023-01-13T03:37:03.987Z,67.90
2023-01-13T03:38:03.029Z,67.46
2023-01-13T03:39:04.002Z,67.66
2023-01-13T03:40:03.021Z,67.57
2023-01-13T03:41:02.998Z,67.66
2023-01-13T03:42:02.945Z,67.46
2023-01-13T03:43:02.997Z,67.16
2023-01-13T03:44:03.935Z,67.26
2023-01-13T03:45:03.922Z,67.66
2023-01-13T03:46:02.975Z,67.46
2023-01-13T03:47:02.895Z,67.57
2023-01-13T03:48:02.923Z,67.57
2023-01-13T03:49:03.876Z,67.87
2023-01-13T03:50:02.870Z,67.66
2023-01-13T03:51:02.849Z,67.87
2023-01-13T03:52:02.847Z,67.66
2023-01-13T03:53:02.823Z,67.57
2023-01-13T03:54:02.887Z,67.87
2023-01-13T03:55:02.796Z,67.57
2023-01-13T03:56:03.811Z,67.97
2023-01-13T03:57:02.810Z,67.63
2023-01-13T03:58:02.799Z,67.05
2023-01-13T03:59:02.762Z,67.33
2023-01-13T04:00:02.761Z,67.46
2023-01-13T04:01:02.869Z,66.92
2023-01-13T04:02:04.003Z,67.63
2023-01-13T04:03:03.722Z,67.74
2023-01-13T04:04:02.741Z,67.22
2023-01-13T04:05:02.692Z,67.63
2023-01-13T04:06:02.707Z,67.53
2023-01-13T04:07:02.708Z,67.22
2023-01-13T04:08:02.672Z,67.22
2023-01-13T04:09:02.641Z,66.41
2023-01-13T04:10:02.658Z,66.52
2023-01-13T04:11:02.654Z,66.82
2023-01-13T04:12:02.620Z,67.53
2023-01-13T04:13:02.794Z,67.22
2023-01-13T04:14:02.629Z,67.05
2023-01-13T04:15:02.678Z,67.43
2023-01-13T04:16:02.595Z,67.02
2023-01-13T04:17:02.576Z,67.33
2023-01-13T04:18:03.532Z,66.92
2023-01-13T04:19:02.523Z,66.61
2023-01-13T04:20:02.555Z,66.82
2023-01-13T04:21:03.525Z,66.61
2023-01-13T04:22:02.492Z,66.69
2023-01-13T04:23:02.494Z,66.52
2023-01-13T04:24:02.484Z,66.31
2023-01-13T04:25:02.511Z,66.61
2023-01-13T04:26:02.467Z,66.31
2023-01-13T04:27:02.444Z,67.02
2023-01-13T04:28:03.439Z,66.61
2023-01-13T04:29:02.444Z,66.82
2023-01-13T04:30:02.405Z,66.82
2023-01-13T04:31:02.511Z,66.92
2023-01-13T04:32:02.418Z,66.82
2023-01-13T04:33:02.399Z,66.61
2023-01-13T04:34:02.395Z,66.82
2023-01-13T04:35:03.343Z,66.52
2023-01-13T04:36:02.342Z,66.61
2023-01-13T04:37:03.361Z,66.61
2023-01-13T04:38:02.339Z,66.52
2023-01-13T04:39:02.319Z,66.61
2023-01-13T04:40:02.315Z,66.92
2023-01-13T04:41:02.312Z,65.97
2023-01-13T04:42:02.291Z,66.49
2023-01-13T04:43:02.284Z,66.82
2023-01-13T04:44:02.265Z,66.72
2023-01-13T04:45:02.259Z,66.58
2023-01-13T04:46:02.286Z,66.52
2023-01-13T04:47:02.226Z,66.31
2023-01-13T04:48:03.298Z,66.61
2023-01-13T04:49:02.224Z,67.22
2023-01-13T04:50:03.225Z,66.41
2023-01-13T04:51:03.168Z,67.13
2023-01-13T04:52:02.181Z,66.52
2023-01-13T04:53:02.152Z,66.82
2023-01-13T04:54:02.153Z,67.33
2023-01-13T04:55:02.225Z,66.82
2023-01-13T04:56:02.147Z,67.22
2023-01-13T04:57:02.132Z,66.72
2023-01-13T04:58:02.110Z,67.02
2023-01-13T04:59:02.090Z,66.82
2023-01-13T05:00:03.128Z,66.82
2023-01-13T05:01:02.140Z,67.33
2023-01-13T05:02:02.124Z,67.22
2023-01-13T05:03:02.049Z,67.02
2023-01-13T05:04:02.020Z,67.02
2023-01-13T05:05:09.908Z,66.58
2023-01-13T05:06:02.047Z,66.69
2023-01-13T05:07:03.007Z,67.33
2023-01-13T05:08:01.996Z,67.22
2023-01-13T05:09:01.977Z,66.72
2023-01-13T05:10:01.969Z,66.41
2023-01-13T05:11:01.974Z,67.53
2023-01-13T05:12:02.943Z,67.33
2023-01-13T05:13:01.935Z,67.13
2023-01-13T05:14:01.938Z,67.22
2023-01-13T05:15:01.909Z,67.22
2023-01-13T05:16:02.074Z,67.33
2023-01-13T05:17:01.912Z,67.13
2023-01-13T05:18:01.887Z,67.63
2023-01-13T05:19:02.921Z,67.13
2023-01-13T05:20:02.875Z,67.43
2023-01-13T05:21:01.883Z,67.83
2023-01-13T05:22:01.839Z,67.63
2023-01-13T05:23:02.832Z,67.63
2023-01-13T05:24:02.804Z,67.63
2023-01-13T05:25:01.809Z,67.77
2023-01-13T05:26:02.804Z,67.83
2023-01-13T05:27:01.797Z,67.63
2023-01-13T05:28:01.780Z,67.83
2023-01-13T05:29:02.743Z,67.83
2023-01-13T05:30:01.776Z,67.63
2023-01-13T05:31:01.855Z,67.87
2023-01-13T05:32:01.757Z,67.43
2023-01-13T05:33:01.735Z,67.63
2023-01-13T05:34:01.699Z,67.57
2023-01-13T05:35:01.683Z,67.63
2023-01-13T05:36:02.686Z,67.83
2023-01-13T05:37:01.668Z,67.83
2023-01-13T05:38:01.665Z,67.33
2023-01-13T05:39:02.637Z,67.33
2023-01-13T05:40:01.703Z,67.87
2023-01-13T05:41:01.634Z,67.83
2023-01-13T05:42:01.643Z,67.74
2023-01-13T05:43:02.590Z,67.43
2023-01-13T05:44:01.626Z,67.02
2023-01-13T05:45:01.577Z,67.22
2023-01-13T05:46:01.785Z,67.74
2023-01-13T05:47:01.562Z,67.74
2023-01-13T05:48:01.595Z,67.83
2023-01-13T05:49:01.567Z,67.74
2023-01-13T05:50:01.550Z,67.94
2023-01-13T05:51:01.561Z,67.74
2023-01-13T05:52:01.531Z,67.22
2023-01-13T05:53:01.491Z,67.22
2023-01-13T05:54:01.497Z,67.66
2023-01-13T05:55:01.499Z,67.87
2023-01-13T05:56:01.463Z,67.94
2023-01-13T05:57:01.453Z,67.22
2023-01-13T05:58:02.436Z,67.74
2023-01-13T05:59:01.431Z,67.43
2023-01-13T06:00:02.449Z,67.33
2023-01-13T06:01:01.521Z,67.02
2023-01-13T06:02:01.382Z,67.43
2023-01-13T06:03:01.416Z,67.13
2023-01-13T06:04:01.487Z,67.22
2023-01-13T06:05:01.364Z,67.22
2023-01-13T06:06:01.358Z,67.22
2023-01-13T06:07:01.348Z,67.33
2023-01-13T06:08:01.325Z,66.82
2023-01-13T06:09:01.328Z,67.13
2023-01-13T06:10:02.296Z,67.33
2023-01-13T06:11:01.333Z,66.92
2023-01-13T06:12:01.303Z,67.33
2023-01-13T06:13:01.279Z,67.13
2023-01-13T06:14:01.248Z,67.13
2023-01-13T06:15:01.249Z,67.57
2023-01-13T06:16:01.310Z,67.53
2023-01-13T06:17:02.241Z,67.74
2023-01-13T06:18:02.233Z,67.53
2023-01-13T06:19:01.207Z,67.33
2023-01-13T06:20:01.228Z,67.43
2023-01-13T06:21:01.183Z,67.02
2023-01-13T06:22:01.164Z,66.72
2023-01-13T06:23:01.241Z,67.33
2023-01-13T06:24:01.155Z,67.13
2023-01-13T06:25:01.153Z,67.22
2023-01-13T06:26:01.171Z,67.63
2023-01-13T06:27:01.108Z,68.04
2023-01-13T06:28:01.107Z,67.83
2023-01-13T06:29:02.104Z,68.14
2023-01-13T06:30:01.082Z,68.48
2023-01-13T06:31:01.071Z,68.58
2023-01-13T06:32:01.091Z,68.99
2023-01-13T06:33:01.043Z,68.58
2023-01-13T06:34:01.024Z,68.99
2023-01-13T06:35:03.714Z,68.99
2023-01-13T06:36:01.058Z,68.79
2023-01-13T06:37:01.026Z,68.65
2023-01-13T06:38:01.002Z,68.79
2023-01-13T06:39:00.973Z,68.68
2023-01-13T06:40:00.995Z,68.99
2023-01-13T06:41:01.986Z,68.85
2023-01-13T06:42:00.965Z,68.88
2023-01-13T06:43:00.935Z,68.99
2023-01-13T06:44:00.923Z,69.29
2023-01-13T06:45:00.920Z,69.84
2023-01-13T06:46:00.979Z,69.49
2023-01-13T06:47:00.929Z,69.40
2023-01-13T06:48:00.912Z,69.84
2023-01-13T06:49:00.901Z,70.28
2023-01-13T06:50:00.850Z,69.97
2023-01-13T06:51:00.860Z,71.53
2023-01-13T06:52:00.864Z,71.97
2023-01-13T06:53:00.838Z,73.50
2023-01-13T06:54:01.861Z,73.71
2023-01-13T06:55:00.794Z,74.01
2023-01-13T06:56:00.815Z,75.07
2023-01-13T06:57:00.798Z,75.92
2023-01-13T06:58:00.760Z,76.73
2023-01-13T06:59:00.777Z,77.34
2023-01-13T07:00:00.773Z,77.25
2023-01-13T07:01:00.836Z,76.93
2023-01-13T07:02:00.883Z,77.45
2023-01-13T07:03:00.808Z,78.00
2023-01-13T07:04:01.734Z,78.54
2023-01-13T07:05:00.711Z,78.95
2023-01-13T07:06:00.714Z,79.36
2023-01-13T07:07:00.655Z,78.88
2023-01-13T07:08:00.691Z,79.50
2023-01-13T07:09:00.654Z,79.39
2023-01-13T07:10:01.671Z,79.29
2023-01-13T07:11:00.644Z,79.84
2023-01-13T07:12:00.661Z,80.25
2023-01-13T07:13:00.603Z,79.91
2023-01-13T07:14:00.610Z,80.35
2023-01-13T07:15:01.589Z,80.35
2023-01-13T07:16:00.672Z,80.15
2023-01-13T07:17:01.631Z,80.25
2023-01-13T07:18:00.539Z,80.56
2023-01-13T07:19:00.568Z,80.35
2023-01-13T07:20:00.558Z,80.32
2023-01-13T07:21:00.549Z,80.01
2023-01-13T07:22:00.521Z,80.21
2023-01-13T07:23:00.538Z,80.46
2023-01-13T07:24:00.502Z,80.11
2023-01-13T07:25:00.557Z,80.32
2023-01-13T07:26:00.459Z,80.01
2023-01-13T07:27:01.466Z,80.11
2023-01-13T07:28:00.448Z,80.21
2023-01-13T07:29:00.423Z,80.21
2023-01-13T07:30:00.575Z,80.32
2023-01-13T07:31:00.404Z,80.01
2023-01-13T07:32:00.496Z,80.11
2023-01-13T07:33:00.379Z,80.11
2023-01-13T07:34:01.379Z,80.83
2023-01-13T07:35:00.367Z,80.73
2023-01-13T07:36:00.355Z,80.73
2023-01-13T07:37:00.325Z,80.83
2023-01-13T07:38:00.326Z,80.73
2023-01-13T07:39:00.325Z,80.11
2023-01-13T07:40:01.327Z,80.18
2023-01-13T07:41:00.299Z,80.18
2023-01-13T07:42:00.286Z,80.28
2023-01-13T07:43:00.291Z,80.18
2023-01-13T07:44:00.388Z,80.07
2023-01-13T07:45:01.234Z,80.01
2023-01-13T07:46:00.302Z,80.21
2023-01-13T07:47:01.226Z,80.32
2023-01-13T07:48:00.224Z,80.42
2023-01-13T07:49:00.245Z,80.21
2023-01-13T07:50:01.192Z,80.32
2023-01-13T07:51:00.199Z,80.52
2023-01-13T07:52:00.163Z,80.28
2023-01-13T07:53:00.149Z,79.66
2023-01-13T07:54:00.148Z,79.46
2023-01-13T07:55:01.170Z,79.36
2023-01-13T07:56:00.154Z,79.36
2023-01-13T07:57:00.127Z,79.36
2023-01-13T07:58:00.165Z,78.85
2023-01-13T07:59:01.098Z,78.58
2023-01-13T08:00:01.078Z,78.07
2023-01-13T08:01:00.229Z,78.44
2023-01-13T08:02:00.391Z,77.93
2023-01-13T08:03:00.178Z,76.64
2023-01-13T08:04:00.043Z,76.64
2023-01-13T08:05:00.042Z,76.84
2023-01-13T08:06:01.012Z,76.43
2023-01-13T08:06:59.991Z,76.33
2023-01-13T08:08:00.008Z,76.84
2023-01-13T08:09:00.003Z,77.15
2023-01-13T08:09:59.973Z,76.23
2023-01-13T08:10:59.963Z,76.12
2023-01-13T08:12:00.974Z,76.64
2023-01-13T08:12:59.967Z,76.33
2023-01-13T08:13:59.936Z,76.40
2023-01-13T08:14:59.953Z,75.99
2023-01-13T08:15:59.923Z,76.09
2023-01-13T08:16:59.916Z,75.78
2023-01-13T08:17:59.892Z,75.89
2023-01-13T08:18:59.891Z,75.17
2023-01-13T08:19:59.892Z,75.48
2023-01-13T08:20:59.862Z,75.48
2023-01-13T08:21:59.830Z,75.27
2023-01-13T08:23:00.817Z,75.17
2023-01-13T08:24:00.832Z,75.17
2023-01-13T08:24:59.827Z,75.17
2023-01-13T08:25:59.820Z,75.17
2023-01-13T08:26:59.785Z,75.04
2023-01-13T08:28:00.847Z,75.04
2023-01-13T08:28:59.771Z,75.34
2023-01-13T08:29:59.772Z,75.24
2023-01-13T08:30:59.769Z,75.34
2023-01-13T08:31:59.733Z,74.63
2023-01-13T08:32:59.709Z,74.11
2023-01-13T08:33:59.712Z,74.56
2023-01-13T08:35:00.697Z,74.22
2023-01-13T08:35:59.719Z,74.25
2023-01-13T08:36:59.680Z,73.94
2023-01-13T08:37:59.671Z,74.25
2023-01-13T08:38:59.643Z,74.76
2023-01-13T08:39:59.643Z,74.46
2023-01-13T08:40:59.651Z,74.66
2023-01-13T08:41:59.649Z,74.66
2023-01-13T08:42:59.625Z,74.87
2023-01-13T08:43:59.605Z,74.56
2023-01-13T08:44:59.621Z,74.76
2023-01-13T08:45:59.647Z,75.37
2023-01-13T08:46:59.565Z,74.56
2023-01-13T08:47:59.595Z,73.94
2023-01-13T08:49:00.529Z,74.35
2023-01-13T08:49:59.563Z,73.64
2023-01-13T08:50:59.521Z,73.54
2023-01-13T08:51:59.507Z,73.36
2023-01-13T08:52:59.485Z,74.08
2023-01-13T08:53:59.503Z,73.88
2023-01-13T08:54:59.491Z,73.40
2023-01-13T08:55:59.487Z,73.98
2023-01-13T08:56:59.521Z,73.88
2023-01-13T08:58:14.153Z,74.11
2023-01-13T08:59:00.430Z,74.43
2023-01-13T09:00:00.444Z,74.49
2023-01-13T09:00:59.539Z,73.88
2023-01-13T09:01:59.606Z,74.29
2023-01-13T09:02:59.388Z,73.98
2023-01-13T09:03:59.444Z,74.39
2023-01-13T09:04:59.423Z,73.57
2023-01-13T09:05:59.370Z,73.27
2023-01-13T09:06:59.367Z,73.36
2023-01-13T09:07:59.328Z,73.33
2023-01-13T09:08:59.327Z,73.33
2023-01-13T09:09:59.328Z,73.23
2023-01-13T09:10:59.297Z,73.13
2023-01-13T09:11:59.290Z,73.13
2023-01-13T09:12:59.305Z,73.23
2023-01-13T09:13:59.273Z,73.23
2023-01-13T09:14:59.317Z,72.62
2023-01-13T09:15:59.337Z,72.82
2023-01-13T09:16:59.240Z,73.33
2023-01-13T09:18:00.223Z,73.64
2023-01-13T09:18:59.216Z,74.05
2023-01-13T09:19:59.196Z,73.27
2023-01-13T09:20:59.207Z,73.57
2023-01-13T09:21:59.177Z,73.36
2023-01-13T09:22:59.192Z,73.98
2023-01-13T09:23:59.677Z,74.05
2023-01-13T09:24:59.145Z,73.98
2023-01-13T09:25:59.132Z,74.05
2023-01-13T09:26:59.116Z,74.05
2023-01-13T09:27:59.110Z,73.33
2023-01-13T09:28:59.110Z,73.10
2023-01-13T09:29:59.106Z,72.92
2023-01-13T09:30:59.096Z,72.82
2023-01-13T09:31:59.105Z,72.82
2023-01-13T09:32:59.074Z,72.72
2023-01-13T09:33:59.047Z,73.13
2023-01-13T09:34:59.026Z,72.82
2023-01-13T09:35:59.061Z,71.91
2023-01-13T09:36:59.021Z,73.33
2023-01-13T09:37:59.056Z,72.55
2023-01-13T09:38:59.027Z,72.62
2023-01-13T09:39:58.978Z,72.92
2023-01-13T09:40:58.989Z,73.13
2023-01-13T09:41:58.946Z,72.31
2023-01-13T09:42:58.941Z,72.72
2023-01-13T09:43:58.983Z,72.07
2023-01-13T09:44:58.936Z,73.50
2023-01-13T09:45:58.969Z,72.79
2023-01-13T09:46:59.888Z,72.89
2023-01-13T09:47:58.910Z,72.38
2023-01-13T09:48:58.878Z,72.69
2023-01-13T09:49:59.870Z,73.10
2023-01-13T09:50:58.928Z,72.79
2023-01-13T09:51:58.856Z,72.69
2023-01-13T09:52:59.825Z,72.99
2023-01-13T09:53:59.810Z,72.99
2023-01-13T09:54:58.838Z,72.48
2023-01-13T09:55:58.823Z,72.17
2023-01-13T09:56:58.779Z,72.89
2023-01-13T09:57:58.776Z,72.28
2023-01-13T09:58:58.789Z,72.07
2023-01-13T09:59:58.757Z,72.28
2023-01-13T10:00:59.790Z,72.89
2023-01-13T10:01:59.737Z,72.07
2023-01-13T10:02:59.732Z,72.89
2023-01-13T10:03:58.740Z,73.19
2023-01-13T10:04:58.816Z,73.19
2023-01-13T10:05:59.693Z,72.69
2023-01-13T10:06:58.739Z,72.04
2023-01-13T10:07:58.680Z,72.28
2023-01-13T10:08:58.678Z,71.77
2023-01-13T10:09:58.650Z,72.55
2023-01-13T10:10:58.657Z,72.75
2023-01-13T10:11:58.616Z,72.14
2023-01-13T10:12:59.640Z,71.73
2023-01-13T10:13:58.622Z,73.03
2023-01-13T10:14:58.602Z,72.00
2023-01-13T10:16:02.749Z,71.91
2023-01-13T10:16:58.562Z,72.34
2023-01-13T10:17:58.551Z,72.45
2023-01-13T10:18:59.588Z,72.86
2023-01-13T10:19:58.648Z,72.00
2023-01-13T10:20:58.522Z,72.11
2023-01-13T10:21:58.533Z,71.53
2023-01-13T10:22:59.494Z,71.33
2023-01-13T10:23:59.507Z,71.19
2023-01-13T10:24:59.522Z,71.70
2023-01-13T10:25:59.528Z,70.98
2023-01-13T10:26:59.541Z,71.09
2023-01-13T10:27:58.469Z,70.68
2023-01-13T10:28:58.447Z,70.57
2023-01-13T10:29:58.437Z,69.46
2023-01-13T10:30:58.485Z,68.84
2023-01-13T10:31:58.410Z,68.84
2023-01-13T10:32:58.412Z,69.25
2023-01-13T10:33:58.406Z,69.46
2023-01-13T10:34:59.373Z,69.56
2023-01-13T10:35:58.401Z,69.25
2023-01-13T10:36:58.364Z,68.74
2023-01-13T10:37:58.336Z,68.61
2023-01-13T10:38:58.333Z,68.33
2023-01-13T10:39:58.347Z,68.54
2023-01-13T10:40:58.355Z,68.84
2023-01-13T10:41:58.310Z,68.23
2023-01-13T10:42:59.287Z,68.23
2023-01-13T10:43:58.286Z,68.03
2023-01-13T10:44:58.278Z,68.54
2023-01-13T10:45:58.272Z,67.93
2023-01-13T10:46:58.247Z,67.04
2023-01-13T10:47:58.232Z,68.13
2023-01-13T10:48:58.220Z,67.72
2023-01-13T10:49:58.223Z,67.41
2023-01-13T10:50:58.230Z,67.72
2023-01-13T10:51:58.281Z,68.26
2023-01-13T10:52:58.191Z,67.72
2023-01-13T10:53:59.191Z,67.52
2023-01-13T10:54:58.159Z,66.63
2023-01-13T10:55:58.148Z,66.53
2023-01-13T10:56:58.157Z,66.83
2023-01-13T10:57:58.146Z,67.35
2023-01-13T10:58:58.133Z,67.55
2023-01-13T10:59:58.107Z,66.63
2023-01-13T11:00:58.115Z,66.63
2023-01-13T11:01:58.118Z,67.24
2023-01-13T11:02:58.053Z,66.74
2023-01-13T11:03:58.064Z,66.70
2023-01-13T11:04:58.230Z,67.52
2023-01-13T11:05:58.033Z,66.80
2023-01-13T11:06:58.026Z,66.19
2023-01-13T11:07:58.055Z,66.70
2023-01-13T11:08:58.070Z,66.50
2023-01-13T11:09:57.998Z,66.09
2023-01-13T11:10:58.001Z,66.50
2023-01-13T11:11:57.992Z,66.30
2023-01-13T11:12:58.997Z,66.39
2023-01-13T11:13:57.952Z,65.48
2023-01-13T11:14:58.934Z,66.39
2023-01-13T11:15:57.988Z,66.39
2023-01-13T11:16:57.906Z,65.68
2023-01-13T11:17:57.924Z,67.04
2023-01-13T11:18:57.881Z,66.39
2023-01-13T11:19:57.906Z,66.50
2023-01-13T11:20:57.890Z,65.78
2023-01-13T11:21:57.863Z,66.06
2023-01-13T11:22:57.844Z,65.58
2023-01-13T11:23:57.852Z,66.09
2023-01-13T11:24:57.829Z,65.51
2023-01-13T11:25:57.821Z,65.17
2023-01-13T11:26:57.804Z,65.17
2023-01-13T11:27:57.772Z,65.17
2023-01-13T11:28:57.784Z,65.58
2023-01-13T11:29:57.780Z,65.78
2023-01-13T11:30:58.929Z,65.58
2023-01-13T11:31:57.738Z,65.17
2023-01-13T11:32:57.722Z,64.46
2023-01-13T11:33:57.721Z,64.76
2023-01-13T11:34:57.735Z,65.48
2023-01-13T11:35:57.700Z,65.37
2023-01-13T11:36:57.726Z,64.66
2023-01-13T11:37:58.673Z,64.66
2023-01-13T11:38:58.668Z,64.46
2023-01-13T11:39:57.714Z,64.73
2023-01-13T11:40:57.628Z,64.63
2023-01-13T11:41:57.637Z,64.84
2023-01-13T11:42:57.641Z,64.63
2023-01-13T11:43:57.635Z,64.63
2023-01-13T11:44:57.597Z,64.12
2023-01-13T11:45:57.602Z,63.89
2023-01-13T11:46:57.638Z,62.77
2023-01-13T11:47:58.580Z,63.54
2023-01-13T11:48:57.564Z,63.82
2023-01-13T11:49:57.538Z,62.80
2023-01-13T11:50:57.538Z,63.51
2023-01-13T11:51:58.510Z,63.28
2023-01-13T11:52:57.523Z,63.92
2023-01-13T11:53:57.510Z,63.58
2023-01-13T11:54:57.488Z,62.97
2023-01-13T11:55:57.477Z,62.77
2023-01-13T11:56:57.453Z,62.56
2023-01-13T11:57:57.467Z,62.97
2023-01-13T11:58:57.427Z,62.87
2023-01-13T11:59:58.416Z,62.05
2023-01-13T12:00:57.485Z,62.43
2023-01-13T12:01:57.442Z,62.74
2023-01-13T12:02:57.458Z,61.52
2023-01-13T12:03:58.428Z,62.36
2023-01-13T12:04:57.374Z,61.24
2023-01-13T12:05:57.363Z,61.00
2023-01-13T12:06:57.353Z,61.04
2023-01-13T12:07:58.364Z,61.52
2023-01-13T12:08:58.341Z,61.41
2023-01-13T12:09:58.323Z,60.70
2023-01-13T12:10:57.306Z,60.60
2023-01-13T12:11:57.334Z,61.11
2023-01-13T12:12:59.481Z,60.80
2023-01-13T12:13:58.280Z,60.93
2023-01-13T12:14:57.273Z,61.44
2023-01-13T12:15:57.277Z,61.24
2023-01-13T12:16:57.249Z,61.72
2023-01-13T12:17:58.221Z,61.31
2023-01-13T12:18:57.208Z,61.44
2023-01-13T12:19:57.210Z,60.91
2023-01-13T12:20:57.203Z,61.11
2023-01-13T12:21:57.183Z,60.50
2023-01-13T12:22:58.160Z,61.52
2023-01-13T12:23:57.146Z,61.31
2023-01-13T12:24:57.203Z,60.50
2023-01-13T12:25:57.141Z,61.41
2023-01-13T12:26:57.168Z,60.60
2023-01-13T12:27:57.135Z,60.73
2023-01-13T12:28:57.160Z,60.63
2023-01-13T12:29:58.195Z,60.12
2023-01-13T12:30:57.092Z,60.63
2023-01-13T12:31:57.139Z,60.63
2023-01-13T12:32:57.046Z,60.70
2023-01-13T12:33:57.064Z,60.63
2023-01-13T12:34:57.061Z,61.14
2023-01-13T12:35:57.059Z,60.76
2023-01-13T12:36:57.011Z,61.65
2023-01-13T12:37:57.007Z,60.63
2023-01-13T12:38:56.983Z,61.54
2023-01-13T12:39:56.988Z,61.44
2023-01-13T12:40:56.978Z,61.85
2023-01-13T12:41:56.960Z,61.24
2023-01-13T12:42:56.947Z,61.75
2023-01-13T12:43:56.959Z,62.54
2023-01-13T12:44:56.955Z,62.63
2023-01-13T12:45:57.937Z,62.54
2023-01-13T12:46:57.923Z,62.46
2023-01-13T12:47:56.885Z,62.26
2023-01-13T12:48:56.868Z,61.65
2023-01-13T12:49:56.881Z,62.87
2023-01-13T12:50:57.890Z,62.46
2023-01-13T12:51:56.856Z,62.46